Time;durP1;ratioP1;P1;durP2;ratioP2;P2;SDS_P1;SDS_P2;PMS_P1;PMS_P2;Temp;Humidity;BMP_temperature;BMP_pressure;BME280_temperature;BME280_humidity;BME280_pressure;Samples;Min_cycle;Max_cycle;Signal;HPM_P1;HPM_P2
2023/01/15 00:01:39;;;;;;;;;;;20.60;54.20;;;;;;6057057;29;19968;-55
2023/01/15 00:04:40;;;;;;;;;;;20.80;54.20;;;;;;6057732;29;19930;-54
2023/01/15 00:07:42;;;;;;;;;;;20.60;54.20;;;;;;6057048;29;19923;-55
2023/01/15 00:10:44;;;;;;;;;;;20.50;54.10;;;;;;6056790;29;19924;-55
2023/01/15 00:13:46;;;;;;;;;;;20.40;54.00;;;;;;6056587;29;20368;-56
2023/01/15 00:16:49;;;;;;;;;;;20.70;54.60;;;;;;6056914;29;19924;-54
2023/01/15 00:19:51;;;;;;;;;;;20.60;53.90;;;;;;6057309;29;20293;-54
2023/01/15 00:22:52;;;;;;;;;;;20.60;54.10;;;;;;6056799;29;19931;-55
2023/01/15 00:29:12;;;;;;;;;;;20.60;53.80;;;;;;6059181;29;19924;-52
2023/01/15 00:32:14;;;;;;;;;;;20.60;54.00;;;;;;6062254;29;19931;-54
2023/01/15 00:35:16;;;;;;;;;;;20.60;54.10;;;;;;6061197;29;19934;-53
2023/01/15 00:38:17;;;;;;;;;;;20.40;53.70;;;;;;6061201;29;19923;-54
2023/01/15 00:41:19;;;;;;;;;;;20.50;53.90;;;;;;6061532;29;19930;-55
2023/01/15 00:44:21;;;;;;;;;;;20.40;53.70;;;;;;6060297;29;19923;-55
2023/01/15 00:47:22;;;;;;;;;;;20.70;54.00;;;;;;6057153;29;19923;-54
2023/01/15 00:50:24;;;;;;;;;;;20.30;53.70;;;;;;6059136;29;19956;-55
2023/01/15 00:53:25;;;;;;;;;;;20.50;53.90;;;;;;6060987;29;19930;-54
2023/01/15 00:56:26;;;;;;;;;;;20.40;53.90;;;;;;6060435;29;19923;-53
2023/01/15 00:59:28;;;;;;;;;;;20.50;53.90;;;;;;6060739;29;19923;-55
2023/01/15 01:02:30;;;;;;;;;;;20.80;53.40;;;;;;6061256;29;20269;-55
2023/01/15 01:05:31;;;;;;;;;;;20.50;53.80;;;;;;6060386;29;19940;-55
2023/01/15 01:08:34;;;;;;;;;;;20.40;53.80;;;;;;6060443;29;19927;-54
2023/01/15 01:11:36;;;;;;;;;;;20.70;53.70;;;;;;6060748;29;20018;-52
2023/01/15 01:14:38;;;;;;;;;;;20.90;54.40;;;;;;6060146;29;19979;-55
2023/01/15 01:17:39;;;;;;;;;;;20.70;53.90;;;;;;6060673;29;19979;-55
2023/01/15 01:20:40;;;;;;;;;;;20.70;53.90;;;;;;6060810;29;20269;-53
2023/01/15 01:23:42;;;;;;;;;;;20.50;53.90;;;;;;6060152;29;19976;-55
2023/01/15 01:26:44;;;;;;;;;;;20.30;53.60;;;;;;6059900;29;19928;-54
2023/01/15 01:29:46;;;;;;;;;;;20.40;53.50;;;;;;6043741;29;19923;-55
2023/01/15 01:32:47;;;;;;;;;;;21.20;54.10;;;;;;6059914;29;19924;-54
2023/01/15 01:35:49;;;;;;;;;;;20.80;53.90;;;;;;6060366;29;19927;-56
2023/01/15 01:38:50;;;;;;;;;;;20.40;53.50;;;;;;6043738;29;19924;-55
2023/01/15 01:41:51;;;;;;;;;;;20.50;53.60;;;;;;6060041;29;20369;-54
2023/01/15 01:44:57;;;;;;;;;;;20.80;53.70;;;;;;6060060;29;20077;-55
2023/01/15 01:48:00;;;;;;;;;;;20.60;53.50;;;;;;6061673;29;19972;-54
2023/01/15 01:51:04;;;;;;;;;;;20.20;53.20;;;;;;6060594;29;19924;-54
2023/01/15 01:54:08;;;;;;;;;;;20.70;53.60;;;;;;6060829;29;19924;-55
2023/01/15 01:57:10;;;;;;;;;;;20.90;53.50;;;;;;6061838;29;19931;-54
2023/01/15 02:00:14;;;;;;;;;;;20.40;53.50;;;;;;6062182;29;20292;-53
2023/01/15 02:03:16;;;;;;;;;;;20.60;53.30;;;;;;6062072;29;19923;-53
2023/01/15 02:06:17;;;;;;;;;;;20.40;53.30;;;;;;6060547;29;20436;-54
2023/01/15 02:09:19;;;;;;;;;;;20.50;53.40;;;;;;6079212;29;19924;-48
2023/01/15 02:12:24;;;;;;;;;;;20.30;53.30;;;;;;6079779;29;19924;-46
2023/01/15 02:15:28;;;;;;;;;;;20.40;53.30;;;;;;6061329;29;19924;-48
2023/01/15 02:18:33;;;;;;;;;;;20.40;53.20;;;;;;6057960;24;19925;-54
2023/01/15 02:21:41;;;;;;;;;;;20.30;53.10;;;;;;6025492;29;19991;-54
2023/01/15 02:24:51;;;;;;;;;;;20.40;53.80;;;;;;6025078;29;19928;-55
2023/01/15 02:27:56;;;;;;;;;;;20.30;53.20;;;;;;6028645;29;19928;-54
2023/01/15 02:31:02;;;;;;;;;;;20.40;53.30;;;;;;6027688;29;19933;-55
2023/01/15 02:34:05;;;;;;;;;;;20.80;53.10;;;;;;6024942;29;20027;-53
2023/01/15 02:37:09;;;;;;;;;;;20.40;53.10;;;;;;6027098;29;19924;-53
2023/01/15 02:40:11;;;;;;;;;;;20.40;53.10;;;;;;6011060;29;19929;-53
2023/01/15 02:43:14;;;;;;;;;;;20.60;53.30;;;;;;6022915;29;19924;-55
2023/01/15 02:46:17;;;;;;;;;;;20.30;53.20;;;;;;6007515;29;20305;-54
2023/01/15 02:49:20;;;;;;;;;;;20.60;53.10;;;;;;6022620;29;19977;-54
2023/01/15 02:52:24;;;;;;;;;;;20.60;53.20;;;;;;6023561;29;19956;-56
2023/01/15 02:55:27;;;;;;;;;;;20.30;53.00;;;;;;6023320;29;20043;-56
2023/01/15 02:58:32;;;;;;;;;;;20.10;53.50;;;;;;6024173;29;19924;-54
2023/01/15 03:01:39;;;;;;;;;;;20.50;53.20;;;;;;6022893;29;19925;-55
2023/01/15 03:04:42;;;;;;;;;;;20.70;52.90;;;;;;6024418;29;19931;-53
2023/01/15 03:07:46;;;;;;;;;;;20.60;53.10;;;;;;6023528;29;19928;-56
2023/01/15 03:10:52;;;;;;;;;;;20.40;53.10;;;;;;6022981;29;20015;-53
2023/01/15 03:13:58;;;;;;;;;;;20.70;53.10;;;;;;6024499;29;19999;-55
2023/01/15 03:17:04;;;;;;;;;;;20.20;53.10;;;;;;6031034;29;20024;-56
2023/01/15 03:20:06;;;;;;;;;;;20.70;53.00;;;;;;6035088;29;19924;-55
2023/01/15 03:23:09;;;;;;;;;;;20.10;52.70;;;;;;6032796;29;19931;-56
2023/01/15 03:26:12;;;;;;;;;;;20.40;52.90;;;;;;6015763;29;19950;-56
2023/01/15 03:29:17;;;;;;;;;;;20.20;52.90;;;;;;6032977;29;20019;-56
2023/01/15 03:32:19;;;;;;;;;;;20.40;53.10;;;;;;6033775;29;19924;-55
2023/01/15 03:35:32;;;;;;;;;;;21.00;53.20;;;;;;6019168;29;19924;-55
2023/01/15 03:38:35;;;;;;;;;;;20.60;52.90;;;;;;6034580;29;19924;-55
2023/01/15 03:41:43;;;;;;;;;;;20.30;52.80;;;;;;6034684;29;19984;-55
2023/01/15 03:44:50;;;;;;;;;;;20.20;52.60;;;;;;6033942;29;19931;-56
2023/01/15 03:47:56;;;;;;;;;;;20.30;52.60;;;;;;6033248;29;19990;-56
2023/01/15 03:51:01;;;;;;;;;;;20.60;52.80;;;;;;6033221;29;19958;-57
2023/01/15 03:54:08;;;;;;;;;;;20.50;52.80;;;;;;6032455;29;20023;-55
2023/01/15 03:57:13;;;;;;;;;;;20.50;53.30;;;;;;6029439;29;19925;-56
2023/01/15 04:00:20;;;;;;;;;;;20.20;52.60;;;;;;6028956;29;19966;-55
2023/01/15 04:03:26;;;;;;;;;;;20.40;52.70;;;;;;6016886;29;19949;-53
2023/01/15 04:06:29;;;;;;;;;;;20.50;52.80;;;;;;6033685;29;19925;-55
2023/01/15 04:09:36;;;;;;;;;;;20.30;52.60;;;;;;6028493;29;19934;-55
2023/01/15 04:12:37;;;;;;;;;;;20.20;52.50;;;;;;6028972;29;19924;-55
2023/01/15 04:15:43;;;;;;;;;;;20.20;52.60;;;;;;6030760;29;19981;-55
2023/01/15 04:18:46;;;;;;;;;;;20.20;52.50;;;;;;6033540;29;19963;-54
2023/01/15 04:21:47;;;;;;;;;;;20.40;52.30;;;;;;6035177;29;19948;-54
2023/01/15 04:24:49;;;;;;;;;;;20.20;52.50;;;;;;6033640;29;19924;-55
2023/01/15 04:27:52;;;;;;;;;;;20.40;52.60;;;;;;6033234;29;19924;-54
2023/01/15 04:30:56;;;;;;;;;;;20.10;52.30;;;;;;6036367;29;20044;-53
2023/01/15 04:33:57;;;;;;;;;;;20.50;52.50;;;;;;6033485;29;19992;-53
2023/01/15 04:36:59;;;;;;;;;;;20.70;52.70;;;;;;6033238;29;20412;-53
2023/01/15 04:40:00;;;;;;;;;;;20.30;52.50;;;;;;6035409;29;19925;-54
2023/01/15 04:46:13;;;;;;;;;;;20.20;52.40;;;;;;6028130;29;20320;-54
2023/01/15 04:49:16;;;;;;;;;;;20.70;52.60;;;;;;6030120;29;19928;-55
2023/01/15 04:52:17;;;;;;;;;;;20.50;52.40;;;;;;6016467;29;19949;-55
2023/01/15 04:55:18;;;;;;;;;;;20.40;52.50;;;;;;6033217;29;19931;-54
2023/01/15 04:58:19;;;;;;;;;;;20.50;52.50;;;;;;6036742;29;19924;-54
2023/01/15 05:01:21;;;;;;;;;;;20.20;52.40;;;;;;6038455;29;19912;-54
2023/01/15 05:04:23;;;;;;;;;;;20.40;52.40;;;;;;6040948;29;19924;-55
2023/01/15 05:07:24;;;;;;;;;;;20.90;52.70;;;;;;6042411;29;19935;-54
2023/01/15 05:10:25;;;;;;;;;;;20.50;52.50;;;;;;6042375;29;19925;-54
2023/01/15 05:13:26;;;;;;;;;;;20.30;52.30;;;;;;6042820;29;19916;-55
2023/01/15 05:16:29;;;;;;;;;;;20.10;52.20;;;;;;6043915;29;19930;-55
2023/01/15 05:19:30;;;;;;;;;;;20.10;52.10;;;;;;6027629;29;19908;-54
2023/01/15 05:22:33;;;;;;;;;;;20.20;52.10;;;;;;6043097;29;19924;-54
2023/01/15 05:25:35;;;;;;;;;;;20.20;52.00;;;;;;6043082;29;19908;-54
2023/01/15 05:28:37;;;;;;;;;;;20.20;52.10;;;;;;6027453;29;19909;-54
2023/01/15 05:31:39;;;;;;;;;;;20.10;52.10;;;;;;6042923;29;19913;-52
2023/01/15 05:34:40;;;;;;;;;;;20.30;52.10;;;;;;6042266;29;19925;-53
2023/01/15 05:37:41;;;;;;;;;;;21.10;52.50;;;;;;6042819;29;19920;-52
2023/01/15 05:40:42;;;;;;;;;;;20.40;52.10;;;;;;6042635;29;19924;-54
2023/01/15 05:43:44;;;;;;;;;;;20.10;52.00;;;;;;6042767;29;19941;-54
2023/01/15 05:46:46;;;;;;;;;;;20.20;52.10;;;;;;6042875;29;19912;-54
2023/01/15 05:49:49;;;;;;;;;;;20.10;51.90;;;;;;6042700;29;19912;-55
2023/01/15 05:52:50;;;;;;;;;;;20.10;52.00;;;;;;6042585;29;19912;-54
2023/01/15 05:55:51;;;;;;;;;;;20.10;51.90;;;;;;6042810;29;19912;-53
2023/01/15 05:58:52;;;;;;;;;;;20.20;52.00;;;;;;6042926;29;19925;-55
2023/01/15 06:01:55;;;;;;;;;;;20.20;51.80;;;;;;6042672;29;19970;-55
2023/01/15 06:04:56;;;;;;;;;;;20.10;51.80;;;;;;6042320;29;19923;-55
2023/01/15 06:07:57;;;;;;;;;;;20.80;52.10;;;;;;6042747;29;19909;-54
2023/01/15 06:11:02;;;;;;;;;;;20.20;51.90;;;;;;6042751;29;19919;-55
2023/01/15 06:14:03;;;;;;;;;;;20.10;51.90;;;;;;6042487;29;19924;-54
2023/01/15 06:17:05;;;;;;;;;;;20.20;51.90;;;;;;6042724;29;19931;-55
2023/01/15 06:20:07;;;;;;;;;;;20.10;51.80;;;;;;6042285;29;19930;-56
2023/01/15 06:23:08;;;;;;;;;;;20.20;51.70;;;;;;6042431;29;19925;-54
2023/01/15 06:26:10;;;;;;;;;;;20.10;51.70;;;;;;6042561;29;19916;-54
2023/01/15 06:29:16;;;;;;;;;;;20.30;51.70;;;;;;6042335;29;19913;-54
2023/01/15 06:32:18;;;;;;;;;;;20.10;51.60;;;;;;6041770;29;19909;-54
2023/01/15 06:35:19;;;;;;;;;;;20.50;51.80;;;;;;6041646;29;19935;-56
2023/01/15 06:38:20;;;;;;;;;;;20.80;52.00;;;;;;6042230;29;19924;-53
2023/01/15 06:47:54;;;;;;;;;;;20.00;51.50;;;;;;6041341;29;19924;-54
2023/01/15 06:50:55;;;;;;;;;;;20.10;51.60;;;;;;6041728;29;19912;-55
2023/01/15 06:53:56;;;;;;;;;;;20.50;51.50;;;;;;6026043;29;19924;-55
2023/01/15 06:56:58;;;;;;;;;;;20.10;51.60;;;;;;6041673;29;19931;-54
2023/01/15 06:59:59;;;;;;;;;;;20.20;51.60;;;;;;6041266;29;19925;-56
2023/01/15 07:03:01;;;;;;;;;;;20.60;51.70;;;;;;6041458;29;19931;-54
2023/01/15 07:06:07;;;;;;;;;;;20.60;51.70;;;;;;6041572;29;19933;-54
2023/01/15 07:09:08;;;;;;;;;;;20.20;51.30;;;;;;6041081;29;19924;-55
2023/01/15 07:12:09;;;;;;;;;;;20.30;51.20;;;;;;6041421;29;19925;-53
2023/01/15 07:15:11;;;;;;;;;;;20.50;51.60;;;;;;6041456;29;19925;-53
2023/01/15 07:18:13;;;;;;;;;;;20.20;51.40;;;;;;6041385;29;19935;-55
2023/01/15 07:21:14;;;;;;;;;;;20.80;51.70;;;;;;6041188;29;19924;-55
2023/01/15 07:24:17;;;;;;;;;;;20.10;51.40;;;;;;6041207;29;19928;-52
2023/01/15 07:27:18;;;;;;;;;;;20.20;51.20;;;;;;6041040;29;19924;-54
2023/01/15 07:30:19;;;;;;;;;;;20.20;51.30;;;;;;6040940;29;19920;-55
2023/01/15 07:33:21;;;;;;;;;;;20.50;51.50;;;;;;6040983;29;19935;-55
2023/01/15 07:36:22;;;;;;;;;;;20.20;51.20;;;;;;6040921;29;19913;-54
2023/01/15 07:39:24;;;;;;;;;;;20.90;51.60;;;;;;6040990;29;19909;-54
2023/01/15 07:52:14;;;;;;;;;;;20.50;51.10;;;;;;6040510;29;19914;-55
2023/01/15 07:55:15;;;;;;;;;;;20.30;51.00;;;;;;6040550;29;19927;-55
2023/01/15 07:58:17;;;;;;;;;;;21.10;51.40;;;;;;6040312;29;19908;-54
2023/01/15 08:01:18;;;;;;;;;;;20.20;50.90;;;;;;6040733;29;19992;-54
2023/01/15 08:04:20;;;;;;;;;;;20.10;50.90;;;;;;6040783;29;19964;-54
2023/01/15 08:07:21;;;;;;;;;;;20.40;51.00;;;;;;6040601;29;19925;-54
2023/01/15 08:10:24;;;;;;;;;;;20.80;51.20;;;;;;6040306;29;19925;-54
2023/01/15 08:16:41;;;;;;;;;;;20.80;51.10;;;;;;6039945;29;19924;-54
2023/01/15 08:19:43;;;;;;;;;;;20.40;50.90;;;;;;6040510;29;19914;-54
2023/01/15 08:22:45;;;;;;;;;;;21.00;51.10;;;;;;6039949;29;19924;-55
2023/01/15 08:25:46;;;;;;;;;;;20.20;50.60;;;;;;6040195;29;19928;-53
2023/01/15 08:28:47;;;;;;;;;;;20.20;50.60;;;;;;6040285;29;19923;-54
2023/01/15 08:31:48;;;;;;;;;;;20.20;50.60;;;;;;6040097;29;19912;-53
2023/01/15 08:34:50;;;;;;;;;;;20.60;50.70;;;;;;6040160;29;19908;-55
2023/01/15 08:37:52;;;;;;;;;;;20.20;50.60;;;;;;6040080;29;19931;-53
2023/01/15 08:41:02;;;;;;;;;;;20.10;50.40;;;;;;6040159;29;19933;-53
2023/01/15 08:44:04;;;;;;;;;;;20.40;50.40;;;;;;6039906;29;19925;-54
2023/01/15 08:47:05;;;;;;;;;;;20.80;49.90;;;;;;6039437;29;20435;-53
2023/01/15 08:50:08;;;;;;;;;;;20.30;50.40;;;;;;6040206;29;19925;-55
2023/01/15 08:53:09;;;;;;;;;;;20.80;50.60;;;;;;6039834;29;19912;-53
2023/01/15 08:56:11;;;;;;;;;;;20.30;50.30;;;;;;6039763;29;19924;-53
2023/01/15 08:59:13;;;;;;;;;;;20.70;50.40;;;;;;6024006;29;19924;-54
2023/01/15 09:02:14;;;;;;;;;;;20.20;49.90;;;;;;6039329;29;19920;-54
2023/01/15 09:05:16;;;;;;;;;;;20.40;50.20;;;;;;6039408;29;19992;-54
2023/01/15 09:08:17;;;;;;;;;;;20.40;50.10;;;;;;6039797;29;19915;-54
2023/01/15 09:11:21;;;;;;;;;;;21.00;50.50;;;;;;6041968;29;20003;-55
2023/01/15 09:14:22;;;;;;;;;;;20.50;50.20;;;;;;6043414;29;19919;-54
2023/01/15 09:17:43;;;;;;;;;;;20.40;50.10;;;;;;6029903;29;19998;-53
2023/01/15 09:20:45;;;;;;;;;;;20.30;50.00;;;;;;6043095;29;19924;-53
2023/01/15 09:23:47;;;;;;;;;;;20.90;50.10;;;;;;6043198;29;19909;-53
2023/01/15 09:26:51;;;;;;;;;;;20.40;49.90;;;;;;6043497;29;19909;-52
2023/01/15 09:29:53;;;;;;;;;;;20.90;50.30;;;;;;6042685;29;19932;-54
2023/01/15 09:32:54;;;;;;;;;;;20.70;50.10;;;;;;6043031;29;19945;-54
2023/01/15 09:35:56;;;;;;;;;;;20.90;50.20;;;;;;6042451;29;19955;-53
2023/01/15 09:38:59;;;;;;;;;;;20.70;50.10;;;;;;6042628;29;19908;-55
2023/01/15 09:42:08;;;;;;;;;;;20.80;49.50;;;;;;6042816;29;19924;-54
2023/01/15 09:45:13;;;;;;;;;;;20.60;49.80;;;;;;6042658;29;19931;-54
2023/01/15 09:48:19;;;;;;;;;;;21.20;50.10;;;;;;6042388;29;19935;-52
2023/01/15 09:51:27;;;;;;;;;;;20.40;49.50;;;;;;6026438;29;19925;-54
2023/01/15 09:54:37;;;;;;;;;;;21.10;50.00;;;;;;6042034;29;19925;-55
2023/01/15 09:57:39;;;;;;;;;;;21.00;49.90;;;;;;6042618;29;19908;-55
2023/01/15 10:00:43;;;;;;;;;;;20.40;49.50;;;;;;6041815;29;19924;-53
2023/01/15 10:03:46;;;;;;;;;;;20.50;49.50;;;;;;6026536;29;19928;-53
2023/01/15 10:06:51;;;;;;;;;;;21.20;49.90;;;;;;6042216;29;19924;-54
2023/01/15 10:09:55;;;;;;;;;;;20.50;49.60;;;;;;6041803;29;19925;-53
2023/01/15 10:12:59;;;;;;;;;;;20.50;49.40;;;;;;6026488;29;19955;-54
2023/01/15 10:16:01;;;;;;;;;;;20.50;49.50;;;;;;6041631;29;19928;-54
2023/01/15 10:19:03;;;;;;;;;;;21.10;49.70;;;;;;6041522;29;19924;-53
2023/01/15 10:22:06;;;;;;;;;;;20.50;49.40;;;;;;6042108;29;19995;-54
2023/01/15 10:25:13;;;;;;;;;;;20.80;49.60;;;;;;6042051;29;19925;-55
2023/01/15 10:28:18;;;;;;;;;;;20.40;49.30;;;;;;6041609;29;19928;-53
2023/01/15 10:31:20;;;;;;;;;;;21.20;49.60;;;;;;6041513;29;19949;-55
2023/01/15 10:34:31;;;;;;;;;;;20.50;49.30;;;;;;6025952;29;19931;-53
2023/01/15 10:37:40;;;;;;;;;;;20.40;49.20;;;;;;6041323;29;19924;-55
2023/01/15 10:40:48;;;;;;;;;;;20.90;49.60;;;;;;6040906;29;19908;-55
2023/01/15 10:43:51;;;;;;;;;;;21.20;49.60;;;;;;6040803;29;19908;-54
2023/01/15 10:46:55;;;;;;;;;;;20.50;49.20;;;;;;6041029;29;19949;-54
2023/01/15 10:50:00;;;;;;;;;;;21.00;49.40;;;;;;6041162;29;19937;-54
2023/01/15 10:53:06;;;;;;;;;;;20.60;49.20;;;;;;6041006;29;20242;-54
2023/01/15 10:56:09;;;;;;;;;;;21.20;49.50;;;;;;6040290;29;19931;-55
2023/01/15 10:59:14;;;;;;;;;;;20.40;49.00;;;;;;6040876;29;19924;-53
2023/01/15 11:02:20;;;;;;;;;;;20.50;49.10;;;;;;6040635;29;19915;-54
2023/01/15 11:05:22;;;;;;;;;;;20.60;49.00;;;;;;6040166;29;19924;-53
2023/01/15 11:08:28;;;;;;;;;;;21.30;49.60;;;;;;6040653;29;19980;-54
2023/01/15 11:21:43;;;;;;;;;;;20.40;48.90;;;;;;6040536;29;19908;-53
2023/01/15 11:24:46;;;;;;;;;;;20.60;49.10;;;;;;6040224;29;19928;-54
2023/01/15 11:27:48;;;;;;;;;;;21.40;49.40;;;;;;6040268;29;19924;-53
2023/01/15 11:30:52;;;;;;;;;;;20.60;49.00;;;;;;6039888;29;19932;-54
2023/01/15 11:33:57;;;;;;;;;;;20.60;48.80;;;;;;6039271;29;19925;-54
2023/01/15 11:37:02;;;;;;;;;;;20.80;49.00;;;;;;6039378;29;19924;-53
2023/01/15 11:40:06;;;;;;;;;;;21.40;49.40;;;;;;6039461;29;19908;-53
2023/01/15 11:53:03;;;;;;;;;;;21.30;49.30;;;;;;6039517;29;20020;-55
2023/01/15 11:56:08;;;;;;;;;;;20.60;49.00;;;;;;6039436;29;19924;-54
2023/01/15 11:59:11;;;;;;;;;;;20.60;48.90;;;;;;6039755;29;19925;-53
2023/01/15 12:02:17;;;;;;;;;;;20.70;49.00;;;;;;6023276;29;19925;-54
2023/01/15 12:05:19;;;;;;;;;;;21.30;49.30;;;;;;6039542;29;19931;-54
2023/01/15 12:08:25;;;;;;;;;;;20.70;49.00;;;;;;6038904;29;19950;-54
2023/01/15 12:11:33;;;;;;;;;;;20.60;48.70;;;;;;6039120;29;19924;-55
2023/01/15 12:14:40;;;;;;;;;;;20.90;48.90;;;;;;6038560;29;20132;-54
2023/01/15 12:17:56;;;;;;;;;;;21.10;48.90;;;;;;6022450;29;19992;-53
2023/01/15 12:21:01;;;;;;;;;;;21.00;48.90;;;;;;6024403;29;19911;-55
2023/01/15 12:24:12;;;;;;;;;;;20.70;48.70;;;;;;6038627;29;19913;-52
2023/01/15 12:27:21;;;;;;;;;;;20.70;48.80;;;;;;6038189;29;20381;-54
2023/01/15 12:30:26;;;;;;;;;;;21.30;49.10;;;;;;6037993;29;19908;-52
2023/01/15 12:33:34;;;;;;;;;;;20.50;48.60;;;;;;6037848;29;19942;-53
2023/01/15 12:36:38;;;;;;;;;;;20.70;48.80;;;;;;6037740;29;19935;-54
2023/01/15 12:39:44;;;;;;;;;;;20.90;48.90;;;;;;6039092;29;19911;-54
2023/01/15 12:46:04;;;;;;;;;;;20.80;49.00;;;;;;6041029;29;19908;-54
2023/01/15 12:49:09;;;;;;;;;;;21.00;48.80;;;;;;6042174;29;19928;-53
2023/01/15 12:52:13;;;;;;;;;;;20.70;48.70;;;;;;6043135;29;19924;-56
2023/01/15 12:55:16;;;;;;;;;;;21.30;48.90;;;;;;6043246;29;19924;-55
2023/01/15 12:58:25;;;;;;;;;;;20.70;48.60;;;;;;6027171;29;19948;-55
2023/01/15 13:01:30;;;;;;;;;;;20.70;48.60;;;;;;6042995;29;19997;-54
2023/01/15 13:04:38;;;;;;;;;;;20.80;48.60;;;;;;6027164;29;19958;-54
2023/01/15 13:07:41;;;;;;;;;;;21.50;49.00;;;;;;6042827;29;19924;-55
2023/01/15 13:10:43;;;;;;;;;;;20.50;48.50;;;;;;6026899;29;19924;-54
2023/01/15 13:13:56;;;;;;;;;;;21.20;48.80;;;;;;6042863;29;19908;-55
2023/01/15 13:17:00;;;;;;;;;;;20.90;48.70;;;;;;6042809;29;19924;-54
2023/01/15 13:20:16;;;;;;;;;;;21.30;48.90;;;;;;6027615;29;19932;-55
2023/01/15 13:23:25;;;;;;;;;;;20.70;48.40;;;;;;6029497;29;19913;-55
2023/01/15 13:26:36;;;;;;;;;;;21.40;48.80;;;;;;6041845;29;19925;-54
2023/01/15 13:29:43;;;;;;;;;;;20.60;48.40;;;;;;6042440;29;19924;-55
2023/01/15 13:32:47;;;;;;;;;;;21.20;48.30;;;;;;6041989;29;19909;-53
2023/01/15 13:35:51;;;;;;;;;;;21.00;48.60;;;;;;6042434;29;19908;-54
2023/01/15 13:38:54;;;;;;;;;;;21.00;48.60;;;;;;6042078;29;19913;-53
2023/01/15 13:45:25;;;;;;;;;;;21.10;48.00;;;;;;6042458;29;19909;-54
2023/01/15 13:48:29;;;;;;;;;;;20.60;48.30;;;;;;6042350;29;19908;-53
2023/01/15 13:51:36;;;;;;;;;;;21.10;48.30;;;;;;6042179;29;19908;-54
2023/01/15 13:54:40;;;;;;;;;;;20.70;48.30;;;;;;6027208;29;19924;-54
2023/01/15 13:57:42;;;;;;;;;;;21.30;48.70;;;;;;6041803;29;19924;-53
2023/01/15 14:00:45;;;;;;;;;;;21.10;48.40;;;;;;6041799;29;19929;-54
2023/01/15 14:03:54;;;;;;;;;;;21.40;48.70;;;;;;6041440;29;19935;-52
2023/01/15 14:06:55;;;;;;;;;;;21.10;46.10;;;;;;6040870;29;19920;-54
2023/01/15 14:10:06;;;;;;;;;;;21.00;48.50;;;;;;6041060;29;19908;-54
2023/01/15 14:13:20;;;;;;;;;;;20.90;48.30;;;;;;6041431;29;19924;-54
2023/01/15 14:16:27;;;;;;;;;;;21.30;48.60;;;;;;6041233;29;19924;-53
2023/01/15 14:19:34;;;;;;;;;;;20.60;48.20;;;;;;6025351;29;19912;-54
2023/01/15 14:22:41;;;;;;;;;;;20.90;48.30;;;;;;6041429;29;19921;-54
2023/01/15 14:25:49;;;;;;;;;;;20.80;48.30;;;;;;6040749;29;19924;-53
2023/01/15 14:29:00;;;;;;;;;;;21.40;48.60;;;;;;6040833;29;19925;-54
2023/01/15 14:32:06;;;;;;;;;;;20.60;48.20;;;;;;6025024;29;19908;-54
2023/01/15 14:35:11;;;;;;;;;;;21.50;48.60;;;;;;6040700;29;19924;-52
2023/01/15 14:38:14;;;;;;;;;;;20.60;48.10;;;;;;6040290;29;19924;-53
2023/01/15 14:41:16;;;;;;;;;;;21.10;48.30;;;;;;6040470;29;19928;-54
2023/01/15 14:44:25;;;;;;;;;;;20.80;48.20;;;;;;6040430;29;19924;-53
2023/01/15 14:47:28;;;;;;;;;;;21.20;48.30;;;;;;6040814;29;19935;-54
2023/01/15 14:50:32;;;;;;;;;;;20.80;48.20;;;;;;6040420;29;19932;-52
2023/01/15 14:53:37;;;;;;;;;;;21.50;48.50;;;;;;6040240;29;19912;-54
2023/01/15 14:56:42;;;;;;;;;;;20.70;48.70;;;;;;6040282;29;19924;-54
2023/01/15 14:59:47;;;;;;;;;;;21.40;48.40;;;;;;6040151;29;19924;-54
2023/01/15 15:02:49;;;;;;;;;;;20.80;48.10;;;;;;6039562;29;19924;-54
2023/01/15 15:05:51;;;;;;;;;;;21.00;48.00;;;;;;6040086;29;19909;-53
2023/01/15 15:08:53;;;;;;;;;;;20.70;48.20;;;;;;6038982;29;19925;-55
2023/01/15 15:15:16;;;;;;;;;;;20.60;48.00;;;;;;6039426;29;19909;-54
2023/01/15 15:18:23;;;;;;;;;;;21.20;48.20;;;;;;6023956;29;19931;-53
2023/01/15 15:21:26;;;;;;;;;;;20.70;48.10;;;;;;6039676;29;19908;-54
2023/01/15 15:24:29;;;;;;;;;;;21.30;48.40;;;;;;6039823;29;19908;-53
2023/01/15 15:27:30;;;;;;;;;;;20.80;48.10;;;;;;6023778;29;20288;-55
2023/01/15 15:30:34;;;;;;;;;;;21.70;48.80;;;;;;6039381;29;19924;-54
2023/01/15 15:33:36;;;;;;;;;;;20.70;48.10;;;;;;6039817;29;20381;-54
2023/01/15 15:36:38;;;;;;;;;;;21.20;48.40;;;;;;6023956;29;19919;-53
2023/01/15 15:39:44;;;;;;;;;;;20.70;48.20;;;;;;6039681;29;19931;-52
2023/01/15 15:49:20;;;;;;;;;;;21.50;48.50;;;;;;6025416;29;19924;-54
2023/01/15 15:52:22;;;;;;;;;;;20.70;48.20;;;;;;6039461;29;19924;-54
2023/01/15 15:55:25;;;;;;;;;;;21.10;48.20;;;;;;6023519;29;19924;-54
2023/01/15 15:58:29;;;;;;;;;;;21.00;48.20;;;;;;6023605;29;19935;-54
2023/01/15 16:01:35;;;;;;;;;;;21.50;48.50;;;;;;6039515;29;19913;-54
2023/01/15 16:04:42;;;;;;;;;;;20.70;48.10;;;;;;6039015;29;19924;-53
2023/01/15 16:07:44;;;;;;;;;;;21.30;48.60;;;;;;6039438;29;19925;-54
2023/01/15 16:10:46;;;;;;;;;;;20.90;48.10;;;;;;6039129;29;19935;-53
2023/01/15 16:13:50;;;;;;;;;;;21.30;48.50;;;;;;6039219;29;19909;-54
2023/01/15 16:16:51;;;;;;;;;;;20.70;48.20;;;;;;6039068;29;19924;-54
2023/01/15 16:19:54;;;;;;;;;;;21.40;48.60;;;;;;6040972;29;19925;-54
2023/01/15 16:22:57;;;;;;;;;;;21.00;48.30;;;;;;6043070;29;19920;-53
2023/01/15 16:26:00;;;;;;;;;;;21.10;48.20;;;;;;6042709;29;19958;-53
2023/01/15 16:29:03;;;;;;;;;;;20.70;48.10;;;;;;6039504;29;19954;-53
2023/01/15 16:32:10;;;;;;;;;;;21.40;48.60;;;;;;6035575;29;19929;-54
2023/01/15 16:35:16;;;;;;;;;;;20.60;48.20;;;;;;6031773;29;19940;-54
2023/01/15 16:38:19;;;;;;;;;;;21.60;48.60;;;;;;6016678;29;20346;-55
2023/01/15 16:41:24;;;;;;;;;;;21.00;48.40;;;;;;6032696;29;19924;-54
2023/01/15 16:44:36;;;;;;;;;;;21.40;48.70;;;;;;6016914;29;19924;-55
2023/01/15 16:47:38;;;;;;;;;;;20.60;48.10;;;;;;6033205;29;19924;-53
2023/01/15 16:50:41;;;;;;;;;;;21.50;48.80;;;;;;6032092;29;19931;-53
2023/01/15 16:53:42;;;;;;;;;;;20.70;48.40;;;;;;6032701;29;19931;-54
2023/01/15 16:56:48;;;;;;;;;;;21.20;48.70;;;;;;6033228;29;19924;-53
2023/01/15 16:59:54;;;;;;;;;;;20.90;48.40;;;;;;6032913;29;20412;-54
2023/01/15 17:02:55;;;;;;;;;;;21.20;48.40;;;;;;6032389;29;19936;-54
2023/01/15 17:05:59;;;;;;;;;;;20.70;48.30;;;;;;6032476;29;19925;-53
2023/01/15 17:09:00;;;;;;;;;;;21.30;48.70;;;;;;6031838;29;19928;-54
2023/01/15 17:12:03;;;;;;;;;;;20.80;48.30;;;;;;6032214;29;19931;-54
2023/01/15 17:15:19;;;;;;;;;;;21.40;48.60;;;;;;6032027;29;19925;-54
2023/01/15 17:18:24;;;;;;;;;;;20.60;48.20;;;;;;6019061;29;19924;-54
2023/01/15 17:21:28;;;;;;;;;;;21.00;48.30;;;;;;6033044;29;20373;-52
2023/01/15 17:24:29;;;;;;;;;;;20.80;48.50;;;;;;6033178;29;19925;-53
2023/01/15 17:27:30;;;;;;;;;;;21.40;48.80;;;;;;6032875;29;19928;-54
2023/01/15 17:30:32;;;;;;;;;;;20.60;48.20;;;;;;6032659;29;20365;-54
2023/01/15 17:33:33;;;;;;;;;;;21.10;48.70;;;;;;6033322;29;19931;-54
2023/01/15 17:36:35;;;;;;;;;;;20.60;48.40;;;;;;6033219;29;19924;-55
2023/01/15 17:39:36;;;;;;;;;;;20.80;48.40;;;;;;6032683;29;19928;-54
2023/01/15 17:42:38;;;;;;;;;;;20.50;48.10;;;;;;6032293;29;19924;-53
2023/01/15 17:45:39;;;;;;;;;;;21.20;48.80;;;;;;6031847;29;19925;-53
2023/01/15 17:48:40;;;;;;;;;;;20.70;48.50;;;;;;6032069;29;19924;-53
2023/01/15 17:51:42;;;;;;;;;;;21.40;48.90;;;;;;6032230;29;19931;-54
2023/01/15 18:07:50;;;;;;;;;;;20.60;48.30;;;;;;6031233;29;19924;-54
2023/01/15 18:10:52;;;;;;;;;;;21.20;48.70;;;;;;6031165;29;19924;-55
2023/01/15 18:13:54;;;;;;;;;;;20.60;48.40;;;;;;6032376;29;19924;-54
2023/01/15 18:16:56;;;;;;;;;;;21.30;48.90;;;;;;6031396;29;19928;-54
2023/01/15 18:19:57;;;;;;;;;;;20.50;48.20;;;;;;6031651;29;19924;-54
2023/01/15 18:22:59;;;;;;;;;;;21.10;48.70;;;;;;6031513;29;20396;-53
2023/01/15 18:26:02;;;;;;;;;;;20.50;48.30;;;;;;6031840;29;19924;-55
2023/01/15 18:29:03;;;;;;;;;;;21.30;48.60;;;;;;6015979;29;19924;-55
2023/01/15 18:32:05;;;;;;;;;;;20.50;48.30;;;;;;6016969;29;19909;-53
2023/01/15 18:35:06;;;;;;;;;;;21.10;48.60;;;;;;6032038;29;19949;-51
2023/01/15 18:38:08;;;;;;;;;;;20.50;48.30;;;;;;6032334;29;19932;-54
2023/01/15 18:41:10;;;;;;;;;;;20.80;48.50;;;;;;6032945;29;19924;-53
2023/01/15 18:47:24;;;;;;;;;;;20.80;48.50;;;;;;6032877;29;19925;-55
2023/01/15 18:50:25;;;;;;;;;;;20.50;48.20;;;;;;6032225;29;19924;-55
2023/01/15 18:53:27;;;;;;;;;;;21.20;48.70;;;;;;6031722;29;19932;-53
2023/01/15 18:59:44;;;;;;;;;;;20.30;48.20;;;;;;6031689;29;19931;-53
2023/01/15 19:02:45;;;;;;;;;;;20.40;48.10;;;;;;6030912;29;19912;-53
2023/01/15 19:05:46;;;;;;;;;;;21.10;48.80;;;;;;6031592;29;19928;-54
2023/01/15 19:08:48;;;;;;;;;;;20.80;48.50;;;;;;6031313;29;19908;-54